createdAt,value
2018-11-12T00:38:25.295Z,76.4
2018-11-12T00:39:24.229Z,76.4
2018-11-12T00:40:23.558Z,76.5
2018-11-12T00:41:22.890Z,76.5
2018-11-12T00:43:20.899Z,76.7
2018-11-12T00:45:19.114Z,76.3
2018-11-12T00:46:18.738Z,76.4
2018-11-12T00:47:17.572Z,76.5
2018-11-12T00:49:16.077Z,76.7
2018-11-12T00:50:15.415Z,76.6
2018-11-12T00:51:14.361Z,76.6
2018-11-12T00:52:13.594Z,76.5
2018-11-12T00:53:12.822Z,76.6
2018-11-12T00:54:12.050Z,76.5
2018-11-12T00:55:10.991Z,77
2018-11-12T00:57:09.594Z,76.9
2018-11-12T00:58:08.424Z,77
2018-11-12T00:59:07.705Z,77.2
2018-11-12T01:00:07.038Z,77.3
2018-11-12T01:01:07.797Z,77.4
2018-11-12T01:02:05.080Z,77.3
2018-11-12T01:05:02.572Z,77.1
2018-11-12T01:06:01.709Z,77.4
2018-11-12T01:07:00.721Z,77.1
2018-11-12T01:08:00.389Z,77.2
2018-11-12T01:08:59.213Z,76.8
2018-11-12T01:09:58.448Z,76.6
2018-11-12T01:10:57.891Z,76.4
2018-11-12T01:11:56.721Z,76.6
2018-11-12T01:12:55.953Z,76.3
2018-11-12T01:13:55.170Z,75.8
2018-11-12T01:14:54.552Z,75.5
2018-11-12T01:15:53.285Z,75
2018-11-12T01:16:52.588Z,74.9
2018-11-12T01:17:51.927Z,74.7
2018-11-12T01:18:50.831Z,75.1
2018-11-12T01:20:49.445Z,75.4
2018-11-12T01:21:48.285Z,75.5
2018-11-12T01:22:47.627Z,75.9
2018-11-12T01:23:46.961Z,75.9
2018-11-12T01:24:45.794Z,76.3
2018-11-12T01:25:45.247Z,76
2018-11-12T01:27:43.447Z,76.4
2018-11-12T01:28:42.462Z,76.6
2018-11-12T01:29:41.697Z,76.6
2018-11-12T01:30:40.928Z,76.9
2018-11-12T01:31:40.148Z,76.9
2018-11-12T01:32:39.489Z,76.9
2018-11-12T01:33:38.220Z,76.8
2018-11-12T01:35:36.947Z,77.3
2018-11-12T01:36:35.781Z,77.4
2018-11-12T01:37:34.899Z,77.4
2018-11-12T01:38:05.658Z,77.4
2018-11-12T01:39:33.566Z,77.7
2018-11-12T01:40:32.785Z,77.7
2018-11-12T01:41:31.727Z,77.6
2018-11-12T01:42:31.056Z,77.9
2018-11-12T01:44:29.161Z,77.8
2018-11-12T01:45:28.644Z,77.9
2018-11-12T01:46:27.673Z,77.9
2018-11-12T01:47:27.024Z,78.1
2018-11-12T01:48:25.764Z,78.1
2018-11-12T01:52:22.744Z,78.3
2018-11-12T01:55:20.345Z,78.6
2018-11-12T01:56:19.677Z,79
2018-11-12T01:57:18.604Z,79.1
2018-11-12T01:59:16.710Z,79.3
2018-11-12T02:00:16.226Z,79.3
2018-11-12T02:02:14.451Z,79.6
2018-11-12T02:03:13.787Z,79.8
2018-11-12T02:04:12.915Z,79.9
2018-11-12T02:05:11.916Z,80
2018-11-12T02:07:10.246Z,80.4
2018-11-12T02:08:09.193Z,80.5
2018-11-12T02:09:08.664Z,80.6
2018-11-12T02:10:07.603Z,80.8
2018-11-12T02:11:06.940Z,80.8
2018-11-12T02:12:05.921Z,80.8
2018-11-12T02:13:05.150Z,80.9
2018-11-12T02:15:03.360Z,81.1
2018-11-12T02:16:02.483Z,81.2
2018-11-12T02:17:02.107Z,81.5
2018-11-12T02:19:00.111Z,81.4
2018-11-12T02:21:57.406Z,81.4
2018-11-12T02:23:55.887Z,81.4
2018-11-12T02:24:55.131Z,81.3
2018-11-12T02:25:54.362Z,81.2
2018-11-12T02:26:53.589Z,81.1
2018-11-12T02:27:52.414Z,81.1
2018-11-12T02:28:51.743Z,81
2018-11-12T02:29:51.070Z,81
2018-11-12T02:33:47.684Z,80.7
2018-11-12T02:34:46.560Z,80.5
2018-11-12T02:35:46.010Z,80.3
2018-11-12T02:36:45.156Z,80.3
2018-11-12T02:37:43.898Z,80.4
2018-11-12T02:38:43.126Z,80.3
2018-11-12T02:39:42.755Z,80.2
2018-11-12T02:40:41.594Z,80.2
2018-11-12T02:42:39.815Z,80
2018-11-12T02:43:39.277Z,79.9
2018-11-12T02:44:38.116Z,80
2018-11-12T02:45:37.563Z,79.9
2018-11-12T02:46:36.906Z,79.9
2018-11-12T02:47:35.624Z,79.8
2018-11-12T02:48:35.079Z,79.9
2018-11-12T02:49:34.194Z,79.9
2018-11-12T02:50:33.131Z,79.9
2018-11-12T02:51:32.371Z,80
2018-11-12T02:52:31.737Z,80
2018-11-12T02:53:30.472Z,80
2018-11-12T02:54:29.808Z,80.2
2018-11-12T02:55:29.262Z,80.3
2018-11-12T02:56:28.094Z,80.3
2018-11-12T02:57:27.401Z,80.4
2018-11-12T02:57:57.959Z,80.4
2018-11-12T02:59:25.493Z,80.2
2018-11-12T03:00:24.619Z,80.4
2018-11-12T03:01:24.140Z,80.4
2018-11-12T03:02:23.373Z,80.4
2018-11-12T03:03:22.228Z,80.6
2018-11-12T03:05:20.847Z,80.7
2018-11-12T03:06:19.679Z,80.9
2018-11-12T03:07:19.117Z,80.7
2018-11-12T03:08:18.193Z,80.6
2018-11-12T03:08:48.470Z,80.6
2018-11-12T03:09:19.113Z,80.7
2018-11-12T03:09:49.786Z,80.7
2018-11-12T03:11:15.302Z,80.8
2018-11-12T03:12:14.748Z,80.8
2018-11-12T03:13:14.097Z,80.9
2018-11-12T03:14:12.928Z,81
2018-11-12T03:16:11.248Z,81.2
2018-11-12T03:17:10.590Z,80.9
2018-11-12T03:18:09.414Z,80.8
2018-11-12T03:19:08.649Z,80.8
2018-11-12T03:20:07.903Z,80.9
2018-11-12T03:21:07.241Z,80.9
2018-11-12T03:22:06.073Z,80.9
2018-11-12T03:23:05.193Z,81
2018-11-12T03:24:04.544Z,81.1
2018-11-12T03:25:03.774Z,81.2
2018-11-12T03:27:01.674Z,81.4
2018-11-12T03:28:01.019Z,81.5
2018-11-12T03:29:00.258Z,81.4
2018-11-12T03:29:59.702Z,81.5
2018-11-12T03:30:58.555Z,81.5
2018-11-12T03:31:57.800Z,81.6
2018-11-12T03:32:56.920Z,81.5
2018-11-12T03:33:56.276Z,81.6
2018-11-12T03:34:55.119Z,81.9
2018-11-12T03:35:54.359Z,81.9
2018-11-12T03:36:53.695Z,81.9
2018-11-12T03:39:50.888Z,81.8
2018-11-12T03:40:21.387Z,81.8
2018-11-12T03:40:51.956Z,81.7
2018-11-12T03:41:22.626Z,81.7
2018-11-12T03:43:47.517Z,81.4
2018-11-12T03:45:45.629Z,81
2018-11-12T03:46:44.857Z,80.9
2018-11-12T03:47:44.195Z,80.8
2018-11-12T03:48:43.140Z,80.7
2018-11-12T03:49:42.584Z,80.6
2018-11-12T03:50:12.747Z,80.6
2018-11-12T03:50:43.292Z,80.5
2018-11-12T03:51:13.546Z,80.5
2018-11-12T03:51:44.085Z,80.4
2018-11-12T03:52:14.644Z,80.4
2018-11-12T03:53:39.247Z,79.8
2018-11-12T03:54:38.380Z,79.7
2018-11-12T03:55:37.103Z,79.6
2018-11-12T03:56:36.443Z,79.4
2018-11-12T03:57:35.566Z,79.3
2018-11-12T03:59:33.777Z,79.3
2018-11-12T04:00:33.015Z,79.3
2018-11-12T04:01:32.470Z,79.3
2018-11-12T04:03:31.005Z,79.3
2018-11-12T04:04:29.941Z,79.2
2018-11-12T04:05:28.780Z,79.1
2018-11-12T04:07:27.100Z,79
2018-11-12T04:08:26.435Z,79.1
2018-11-12T04:09:25.178Z,79.2
2018-11-12T04:10:24.905Z,79.2
2018-11-12T04:11:23.639Z,79.1
2018-11-12T04:14:21.236Z,79
2018-11-12T04:15:20.072Z,79.2
2018-11-12T04:16:19.801Z,79.2
2018-11-12T04:17:18.820Z,79.1
2018-11-12T04:18:18.050Z,79.2
2018-11-12T04:19:17.285Z,79.2
2018-11-12T04:20:16.107Z,79.2
2018-11-12T04:21:15.460Z,79.3
2018-11-12T04:21:46.121Z,79.3
2018-11-12T04:23:13.537Z,79.5
2018-11-12T04:24:12.767Z,79.5
2018-11-12T04:25:12.102Z,79.6
2018-11-12T04:26:11.256Z,79.6
2018-11-12T04:27:10.488Z,79.7
2018-11-12T04:28:09.330Z,80
2018-11-12T04:29:08.767Z,80.3
2018-11-12T04:30:07.489Z,80.4
2018-11-12T04:31:06.944Z,80.3
2018-11-12T04:32:05.782Z,80.3
2018-11-12T04:32:36.220Z,80.3
2018-11-12T04:33:06.768Z,80.6
2018-11-12T04:34:04.215Z,80.5
2018-11-12T04:35:03.683Z,80.7
2018-11-12T04:36:02.686Z,80.7
2018-11-12T04:38:00.915Z,81.2
2018-11-12T04:39:00.286Z,81.1
2018-11-12T04:39:59.002Z,81.2
2018-11-12T04:40:58.349Z,81.1
2018-11-12T04:41:57.673Z,81.3
2018-11-12T04:45:54.048Z,82.7
2018-11-12T04:46:53.278Z,83.2
2018-11-12T04:47:52.636Z,83.7
2018-11-12T04:52:47.884Z,84.3
2018-11-12T04:53:47.610Z,84.8
2018-11-12T04:54:46.348Z,84.6
2018-11-12T04:56:44.874Z,84.5
2018-11-12T04:57:43.709Z,84.8
2018-11-12T04:58:43.061Z,84.7
2018-11-12T04:59:42.286Z,85
2018-11-12T05:00:40.955Z,84.9
2018-11-12T05:01:40.370Z,85.4
2018-11-12T05:02:39.652Z,85.6
2018-11-12T05:03:38.485Z,85.3
2018-11-12T05:04:37.717Z,85.3
2018-11-12T05:05:37.064Z,85.4
2018-11-12T05:06:35.790Z,85.3
2018-11-12T05:08:34.118Z,85.8
2018-11-12T05:10:32.451Z,85.8
2018-11-12T05:11:31.793Z,85.8
2018-11-12T05:12:30.738Z,86.1
2018-11-12T05:13:29.967Z,85.9
2018-11-12T05:15:28.294Z,86.2
2018-11-12T05:16:27.273Z,86.1
2018-11-12T05:18:25.632Z,86.3
2018-11-12T05:18:56.057Z,86.3
2018-11-12T05:19:26.490Z,86.2
2018-11-12T05:20:23.992Z,86.2
2018-11-12T05:21:23.231Z,86.2
2018-11-12T05:23:21.449Z,86.7
2018-11-12T05:26:18.549Z,87.1
2018-11-12T05:30:15.419Z,87.3
2018-11-12T05:33:12.550Z,87.9
2018-11-12T05:34:12.012Z,87.8
2018-11-12T05:35:10.841Z,87.7
2018-11-12T05:42:05.088Z,88.5
2018-11-12T05:47:00.249Z,89.1
2018-11-12T05:52:55.111Z,89.1
2018-11-12T05:56:51.948Z,88.9
2018-11-12T05:57:22.094Z,88.9
2018-11-12T08:34:32.719Z,85.6
2018-11-12T09:03:07.886Z,84.4
2018-11-12T09:08:03.642Z,82.7
2018-11-12T09:10:01.971Z,81.3
2018-11-12T09:11:01.015Z,81.3
2018-11-12T09:20:52.340Z,77.6
2018-11-12T09:50:27.954Z,70
2018-11-12T10:01:19.009Z,70.2
2018-11-12T10:02:19.723Z,69.9
2018-11-12T10:03:18.859Z,70.4
2018-11-12T10:04:17.567Z,70.7
2018-11-12T10:05:18.710Z,70.8
2018-11-12T10:06:18.744Z,70.6
2018-11-12T10:07:17.373Z,71
2018-11-12T10:08:18.338Z,71
2018-11-12T10:08:50.812Z,71
2018-11-12T10:09:20.192Z,70.9
2018-11-12T10:11:17.767Z,71.1
2018-11-12T10:12:16.588Z,70.8
2018-11-12T10:12:47.669Z,70.8
2018-11-12T10:13:13.587Z,70.5
2018-11-12T10:14:13.750Z,70.7
2018-11-12T10:14:46.060Z,70.7
2018-11-12T10:15:16.759Z,70.2
2018-11-12T10:16:15.978Z,70.2
2018-11-12T10:16:40.264Z,70.2
2018-11-12T10:17:10.780Z,70.3
2018-11-12T10:17:40.373Z,70.3
2018-11-12T10:23:01.305Z,70.3
2018-11-12T10:24:00.046Z,70.4
2018-11-12T10:25:58.771Z,70.8
2018-11-12T10:26:57.695Z,70.8
2018-11-12T10:28:56.414Z,70.7
2018-11-12T10:29:55.763Z,71.1
2018-11-12T10:30:26.304Z,71.1
2018-11-12T10:35:50.966Z,70.9
2018-11-12T10:36:49.694Z,70.7
2018-11-12T10:38:48.309Z,69.5
2018-11-12T10:39:47.757Z,68.3
2018-11-12T10:40:46.622Z,67.9
2018-11-12T10:41:17.030Z,67.9
2018-11-12T10:41:47.144Z,67.6
2018-11-12T10:43:44.364Z,67.5
2018-11-12T10:45:42.984Z,67.7
2018-11-12T10:58:32.815Z,66.1
2018-11-12T11:51:50.816Z,59.2
2018-11-12T12:01:43.460Z,58.9
2018-11-12T17:02:02.049Z,68.2
